createdAt,value
2017-12-05T00:00:25.330Z,25.50
2017-12-05T00:01:25.318Z,27.60
2017-12-05T00:02:25.280Z,24.00
2017-12-05T00:03:25.254Z,25.60
2017-12-05T00:04:25.220Z,24.00
2017-12-05T00:05:25.197Z,22.30
2017-12-05T00:06:25.167Z,18.50
2017-12-05T00:07:25.150Z,19.50
2017-12-05T00:08:25.113Z,18.90
2017-12-05T00:09:25.072Z,20.90
2017-12-05T00:10:25.048Z,19.20
2017-12-05T00:11:25.017Z,21.70
2017-12-05T00:12:24.984Z,21.10
2017-12-05T00:13:24.962Z,16.20
2017-12-05T00:14:24.934Z,20.60
2017-12-05T00:15:24.910Z,19.40
2017-12-05T00:16:24.880Z,23.60
2017-12-05T00:17:24.850Z,19.80
2017-12-05T00:18:24.823Z,17.90
2017-12-05T00:19:24.788Z,20.80
2017-12-05T00:20:24.767Z,16.50
2017-12-05T00:21:24.737Z,14.20
2017-12-05T00:22:24.701Z,17.00
2017-12-05T00:23:24.686Z,16.90
2017-12-05T00:24:24.651Z,15.90
2017-12-05T00:25:24.621Z,14.80
2017-12-05T00:26:24.592Z,16.60
2017-12-05T00:27:24.555Z,12.20
2017-12-05T00:28:24.537Z,18.10
2017-12-05T00:29:24.509Z,15.60
2017-12-05T00:30:24.478Z,15.00
2017-12-05T00:31:24.447Z,17.00
2017-12-05T00:32:24.722Z,17.30
2017-12-05T00:33:24.393Z,13.20
2017-12-05T00:34:24.371Z,16.10
2017-12-05T00:35:24.328Z,16.90
2017-12-05T00:36:24.309Z,15.20
2017-12-05T00:37:24.273Z,17.80
2017-12-05T00:38:24.487Z,16.10
2017-12-05T00:39:24.218Z,15.90
2017-12-05T00:40:24.198Z,19.90
2017-12-05T00:41:24.151Z,18.90
2017-12-05T00:42:24.132Z,18.40
2017-12-05T00:43:24.100Z,16.80
2017-12-05T00:44:24.087Z,20.00
2017-12-05T00:45:24.049Z,19.70
2017-12-05T00:46:24.027Z,19.00
2017-12-05T00:47:23.982Z,18.40
2017-12-05T00:48:23.958Z,16.30
2017-12-05T00:49:23.930Z,21.20
2017-12-05T00:50:23.905Z,20.90
2017-12-05T00:51:23.875Z,20.80
2017-12-05T00:52:23.841Z,22.70
2017-12-05T00:53:23.808Z,23.70
2017-12-05T00:54:23.789Z,22.80
2017-12-05T00:55:23.762Z,18.20
2017-12-05T00:56:24.089Z,21.00
2017-12-05T00:57:23.694Z,21.60
2017-12-05T00:58:23.666Z,22.80
2017-12-05T00:59:23.647Z,26.00
2017-12-05T01:00:23.609Z,24.00
2017-12-05T01:01:23.587Z,20.40
2017-12-05T01:02:23.557Z,24.70
2017-12-05T01:03:23.544Z,23.60
2017-12-05T01:04:23.504Z,20.40
2017-12-05T01:05:23.481Z,24.50
2017-12-05T01:06:23.450Z,24.40
2017-12-05T01:07:23.421Z,25.80
2017-12-05T01:08:23.634Z,26.80
2017-12-05T01:09:23.363Z,25.70
2017-12-05T01:10:23.344Z,22.90
2017-12-05T01:11:23.303Z,19.60
2017-12-05T01:12:23.274Z,25.70
2017-12-05T01:13:23.506Z,20.00
2017-12-05T01:14:23.214Z,22.40
2017-12-05T01:15:23.187Z,21.70
2017-12-05T01:16:23.160Z,24.00
2017-12-05T01:17:23.125Z,25.70
2017-12-05T01:18:23.097Z,24.00
2017-12-05T01:19:23.073Z,22.50
2017-12-05T01:20:23.053Z,18.50
2017-12-05T01:21:23.018Z,22.10
2017-12-05T01:22:22.986Z,23.60
2017-12-05T01:23:22.966Z,24.30
2017-12-05T01:24:22.941Z,25.20
2017-12-05T01:25:22.903Z,22.20
2017-12-05T01:26:22.881Z,17.00
2017-12-05T01:27:22.841Z,24.20
2017-12-05T01:28:22.821Z,22.10
2017-12-05T01:29:22.800Z,20.00
2017-12-05T01:30:22.767Z,23.80
2017-12-05T01:31:22.739Z,26.30
2017-12-05T01:32:22.701Z,20.20
2017-12-05T01:33:22.670Z,19.30
2017-12-05T01:34:22.650Z,22.60
2017-12-05T01:35:22.624Z,17.20
2017-12-05T01:36:22.592Z,18.20
2017-12-05T01:37:22.864Z,19.50
2017-12-05T01:38:22.541Z,19.40
2017-12-05T01:39:22.501Z,21.10
2017-12-05T01:40:22.477Z,14.10
2017-12-05T01:41:22.448Z,17.50
2017-12-05T01:42:22.425Z,16.30
2017-12-05T01:43:22.386Z,17.30
2017-12-05T01:44:22.359Z,16.50
2017-12-05T01:45:22.334Z,16.60
2017-12-05T01:46:22.304Z,16.30
2017-12-05T01:47:22.277Z,17.10
2017-12-05T01:48:22.261Z,20.30
2017-12-05T01:49:22.476Z,16.50
2017-12-05T01:50:22.196Z,18.40
2017-12-05T01:51:22.163Z,16.10
2017-12-05T01:52:22.142Z,16.10
2017-12-05T01:53:22.109Z,15.60
2017-12-05T01:54:22.073Z,20.90
2017-12-05T01:55:22.295Z,20.00
2017-12-05T01:56:22.024Z,22.20
2017-12-05T01:57:22.008Z,23.40
2017-12-05T01:58:21.971Z,22.20
2017-12-05T01:59:21.933Z,22.10
2017-12-05T02:00:21.909Z,24.90
2017-12-05T02:01:21.888Z,18.00
2017-12-05T02:02:21.936Z,19.90
2017-12-05T02:03:21.831Z,19.40
2017-12-05T02:04:21.800Z,16.00
2017-12-05T02:05:21.774Z,15.20
2017-12-05T02:06:21.739Z,20.30
2017-12-05T02:07:21.714Z,18.90
2017-12-05T02:08:21.685Z,16.70
2017-12-05T02:09:21.657Z,20.10
2017-12-05T02:10:21.626Z,21.70
2017-12-05T02:11:21.595Z,14.90
2017-12-05T02:12:21.568Z,20.00
2017-12-05T02:13:21.545Z,18.20
2017-12-05T02:14:21.511Z,17.00
2017-12-05T02:15:21.482Z,17.00
2017-12-05T02:16:21.449Z,19.40
2017-12-05T02:17:21.429Z,20.10
2017-12-05T02:18:21.400Z,18.90
2017-12-05T02:19:21.626Z,14.30
2017-12-05T02:20:21.348Z,18.80
2017-12-05T02:21:21.308Z,16.80
2017-12-05T02:22:21.288Z,16.50
2017-12-05T02:23:21.264Z,17.90
2017-12-05T02:24:21.295Z,17.30
2017-12-05T02:25:21.504Z,15.60
2017-12-05T02:26:21.168Z,17.00
2017-12-05T02:27:21.146Z,14.40
2017-12-05T02:28:21.129Z,18.10
2017-12-05T02:29:21.093Z,15.50
2017-12-05T02:30:21.070Z,14.80
2017-12-05T02:31:21.046Z,11.50
2017-12-05T02:32:21.001Z,12.70
2017-12-05T02:33:20.976Z,16.70
2017-12-05T02:34:20.949Z,16.70
2017-12-05T02:35:20.931Z,17.60
2017-12-05T02:36:20.895Z,14.60
2017-12-05T02:37:20.858Z,14.00
2017-12-05T02:38:20.837Z,17.90
2017-12-05T02:39:20.805Z,16.90
2017-12-05T02:40:20.777Z,15.20
2017-12-05T02:41:20.753Z,18.30
2017-12-05T02:42:20.716Z,17.90
2017-12-05T02:43:20.695Z,17.70
2017-12-05T02:44:20.665Z,17.10
2017-12-05T02:45:20.640Z,17.80
2017-12-05T02:46:20.604Z,12.80
2017-12-05T02:47:20.582Z,14.00
2017-12-05T02:48:20.556Z,18.40
2017-12-05T02:49:20.775Z,17.60
2017-12-05T02:50:20.501Z,17.30
2017-12-05T02:51:20.473Z,14.20
2017-12-05T02:52:20.442Z,14.90
2017-12-05T02:53:20.404Z,17.60
2017-12-05T02:54:20.378Z,18.50
2017-12-05T02:55:20.615Z,21.10
2017-12-05T02:56:20.332Z,17.00
2017-12-05T02:57:20.290Z,17.40
2017-12-05T02:58:20.263Z,19.20
2017-12-05T02:59:20.236Z,16.60
2017-12-05T03:00:20.210Z,14.00
2017-12-05T03:01:20.185Z,16.60
2017-12-05T03:02:20.159Z,14.20
2017-12-05T03:03:20.121Z,22.00
2017-12-05T03:04:20.091Z,16.50
2017-12-05T03:05:20.073Z,19.80
2017-12-05T03:06:20.046Z,20.70
2017-12-05T03:07:20.025Z,23.80
2017-12-05T03:08:19.994Z,19.10
2017-12-05T03:09:19.950Z,18.10
2017-12-05T03:10:19.937Z,15.90
2017-12-05T03:11:19.894Z,13.40
2017-12-05T03:12:19.873Z,18.50
2017-12-05T03:13:19.843Z,13.70
2017-12-05T03:14:19.812Z,19.20
2017-12-05T03:15:19.790Z,20.40
2017-12-05T03:16:19.758Z,21.60
2017-12-05T03:17:19.730Z,14.70
2017-12-05T03:18:19.707Z,19.00
2017-12-05T03:19:20.028Z,15.00
2017-12-05T03:20:19.645Z,24.10
2017-12-05T03:21:19.662Z,12.00
2017-12-05T03:22:19.591Z,19.30
2017-12-05T03:23:19.563Z,16.30
2017-12-05T03:24:19.532Z,20.80
2017-12-05T03:25:19.757Z,12.90
2017-12-05T03:26:19.479Z,18.00
2017-12-05T03:27:19.451Z,11.80
2017-12-05T03:28:19.415Z,24.80
2017-12-05T03:29:19.395Z,18.50
2017-12-05T03:30:19.366Z,20.40
2017-12-05T03:31:19.347Z,21.40
2017-12-05T03:32:19.352Z,24.30
2017-12-05T03:33:19.277Z,18.90
2017-12-05T03:34:19.255Z,19.50
2017-12-05T03:35:19.219Z,20.50
2017-12-05T03:36:19.190Z,20.20
2017-12-05T03:37:19.165Z,19.00
2017-12-05T03:38:19.128Z,24.70
2017-12-05T03:39:19.103Z,21.30
2017-12-05T03:40:19.077Z,22.90
2017-12-05T03:41:19.062Z,23.90
2017-12-05T03:42:19.027Z,24.30
2017-12-05T03:43:18.988Z,31.20
2017-12-05T03:44:18.969Z,27.10
2017-12-05T03:45:18.936Z,21.90
2017-12-05T03:46:18.910Z,23.60
2017-12-05T03:47:18.888Z,23.60
2017-12-05T03:48:18.856Z,25.50
2017-12-05T03:49:18.824Z,26.10
2017-12-05T03:50:18.788Z,27.90
2017-12-05T03:51:18.772Z,20.90
2017-12-05T03:52:18.745Z,29.60
2017-12-05T03:53:18.721Z,30.00
2017-12-05T03:54:18.930Z,27.00
2017-12-05T03:55:18.658Z,24.80
2017-12-05T03:56:18.620Z,25.10
2017-12-05T03:57:18.595Z,25.00
2017-12-05T03:58:18.569Z,26.90
2017-12-05T03:59:18.544Z,27.00
2017-12-05T04:00:18.819Z,28.70
2017-12-05T04:01:18.499Z,20.30
2017-12-05T04:02:18.464Z,27.10
2017-12-05T04:03:18.433Z,23.50
2017-12-05T04:04:18.408Z,22.60
2017-12-05T04:05:18.368Z,23.80
2017-12-05T04:06:18.346Z,15.60
2017-12-05T04:07:18.320Z,20.50
2017-12-05T04:08:18.291Z,22.40
2017-12-05T04:09:18.259Z,21.10
2017-12-05T04:10:18.276Z,19.50
2017-12-05T04:11:18.199Z,23.30
2017-12-05T04:12:18.167Z,26.20
2017-12-05T04:13:18.155Z,20.20
2017-12-05T04:14:18.122Z,21.30
2017-12-05T04:15:18.084Z,15.90
2017-12-05T04:16:18.057Z,19.70
2017-12-05T04:17:18.042Z,22.20
2017-12-05T04:18:18.011Z,18.20
2017-12-05T04:19:17.977Z,21.50
2017-12-05T04:20:17.947Z,17.90
2017-12-05T04:21:17.919Z,16.20
2017-12-05T04:22:17.890Z,19.20
2017-12-05T04:23:17.867Z,19.40
2017-12-05T04:24:17.837Z,14.90
2017-12-05T04:25:17.807Z,19.40
2017-12-05T04:26:17.780Z,15.30
2017-12-05T04:27:17.752Z,11.60
2017-12-05T04:28:17.721Z,17.30
2017-12-05T04:29:17.698Z,16.00
2017-12-05T04:30:17.925Z,15.90
2017-12-05T04:31:17.641Z,14.20
2017-12-05T04:32:17.611Z,16.10
2017-12-05T04:33:17.584Z,14.90
2017-12-05T04:34:17.552Z,12.00
2017-12-05T04:35:17.584Z,12.50
2017-12-05T04:36:17.798Z,13.60
2017-12-05T04:37:17.473Z,13.10
2017-12-05T04:38:17.463Z,11.90
2017-12-05T04:39:17.415Z,13.80
2017-12-05T04:40:17.379Z,9.30
2017-12-05T04:41:17.355Z,16.40
2017-12-05T04:42:17.320Z,13.70
2017-12-05T04:43:17.293Z,10.20
2017-12-05T04:44:17.270Z,12.60
2017-12-05T04:45:17.238Z,13.80
2017-12-05T04:46:17.221Z,15.90
2017-12-05T04:47:17.188Z,15.10
2017-12-05T04:48:17.150Z,13.00
2017-12-05T04:49:17.141Z,12.80
2017-12-05T04:50:17.101Z,13.50
2017-12-05T04:51:17.072Z,12.30
2017-12-05T04:52:17.056Z,12.30
2017-12-05T04:53:17.021Z,15.30
2017-12-05T04:54:17.238Z,10.00
2017-12-05T04:55:16.970Z,11.40
2017-12-05T04:56:16.928Z,10.10
2017-12-05T04:57:16.896Z,10.90
2017-12-05T04:58:16.874Z,15.50
2017-12-05T04:59:16.839Z,10.20
2017-12-05T05:00:16.816Z,15.10
2017-12-05T05:01:16.786Z,13.10
2017-12-05T05:02:16.765Z,13.30
2017-12-05T05:03:16.733Z,13.80
2017-12-05T05:04:16.703Z,8.80
2017-12-05T05:05:16.674Z,13.70
2017-12-05T05:06:16.647Z,11.10
2017-12-05T05:07:16.618Z,7.40
2017-12-05T05:08:16.587Z,8.40
2017-12-05T05:09:16.558Z,13.30
2017-12-05T05:10:16.534Z,10.80
2017-12-05T05:11:16.509Z,11.30
2017-12-05T05:12:16.838Z,11.30
2017-12-05T05:13:16.441Z,8.50
2017-12-05T05:14:16.425Z,15.00
2017-12-05T05:15:16.393Z,9.20
2017-12-05T05:16:16.367Z,11.20
2017-12-05T05:17:16.337Z,17.70
2017-12-05T05:18:16.616Z,14.70
2017-12-05T05:19:16.283Z,9.40
2017-12-05T05:20:16.248Z,15.60
2017-12-05T05:21:16.226Z,19.20
2017-12-05T05:22:16.198Z,17.10
2017-12-05T05:23:16.175Z,15.70
2017-12-05T05:24:16.388Z,25.30
2017-12-05T05:25:16.115Z,18.80
2017-12-05T05:26:16.083Z,21.20
2017-12-05T05:27:16.047Z,26.40
2017-12-05T05:28:16.030Z,26.30
2017-12-05T05:29:15.999Z,25.00
2017-12-05T05:30:15.977Z,20.40
2017-12-05T05:31:15.938Z,20.90
2017-12-05T05:32:15.917Z,23.20
2017-12-05T05:33:15.882Z,20.50
2017-12-05T05:34:15.852Z,29.10
2017-12-05T05:35:15.831Z,24.10
2017-12-05T05:36:16.055Z,23.90
2017-12-05T05:37:15.769Z,23.00
2017-12-05T05:38:15.736Z,22.60
2017-12-05T05:39:15.715Z,24.70
2017-12-05T05:40:15.682Z,28.50
2017-12-05T05:41:15.666Z,22.40
2017-12-05T05:42:15.628Z,17.80
2017-12-05T05:43:15.602Z,21.70
2017-12-05T05:44:15.568Z,18.50
2017-12-05T05:45:15.544Z,18.20
2017-12-05T05:46:15.520Z,22.50
2017-12-05T05:47:15.487Z,19.80
2017-12-05T05:48:15.470Z,15.20
2017-12-05T05:49:15.436Z,20.90
2017-12-05T05:50:15.398Z,18.40
2017-12-05T05:51:15.377Z,16.80
2017-12-05T05:52:15.348Z,16.70
2017-12-05T05:53:15.321Z,20.70
2017-12-05T05:54:15.293Z,15.80
2017-12-05T05:55:15.267Z,14.80
2017-12-05T05:56:15.237Z,17.90
2017-12-05T05:57:15.215Z,14.00
2017-12-05T05:58:15.175Z,18.80
2017-12-05T05:59:15.156Z,14.50
2017-12-05T06:00:15.373Z,17.20
2017-12-05T06:01:15.095Z,18.30
2017-12-05T06:02:15.069Z,14.00
2017-12-05T06:03:15.044Z,12.50
2017-12-05T06:04:15.006Z,12.30
2017-12-05T06:05:14.980Z,14.40
2017-12-05T06:06:15.207Z,13.50
2017-12-05T06:07:14.931Z,13.80
2017-12-05T06:08:14.893Z,10.80
2017-12-05T06:09:14.868Z,14.50
2017-12-05T06:10:14.838Z,17.50
2017-12-05T06:11:14.803Z,11.30
2017-12-05T06:12:14.779Z,11.90
2017-12-05T06:13:14.762Z,15.70
2017-12-05T06:14:14.738Z,9.00
2017-12-05T06:15:14.701Z,12.50
2017-12-05T06:16:14.668Z,16.60
2017-12-05T06:17:14.647Z,9.80
2017-12-05T06:18:14.610Z,12.00
2017-12-05T06:19:14.585Z,15.50
2017-12-05T06:20:14.565Z,14.00
2017-12-05T06:21:14.523Z,17.40
2017-12-05T06:22:14.505Z,12.90
2017-12-05T06:23:14.773Z,12.20
2017-12-05T06:24:14.447Z,10.60
2017-12-05T06:25:14.417Z,9.80
2017-12-05T06:26:14.380Z,16.40
2017-12-05T06:27:14.358Z,13.20
2017-12-05T06:28:14.323Z,10.80
2017-12-05T06:29:14.554Z,13.70
2017-12-05T06:30:14.286Z,11.10
2017-12-05T06:31:14.238Z,15.00
2017-12-05T06:32:14.212Z,11.90
2017-12-05T06:33:14.188Z,19.70
2017-12-05T06:34:14.164Z,16.90
2017-12-05T06:35:14.134Z,20.10
2017-12-05T06:36:14.102Z,14.80
2017-12-05T06:37:14.081Z,17.40
2017-12-05T06:38:14.046Z,13.70
2017-12-05T06:39:14.023Z,17.60
2017-12-05T06:40:13.995Z,14.80
2017-12-05T06:41:13.955Z,17.20
2017-12-05T06:42:13.941Z,15.90
2017-12-05T06:43:13.899Z,13.90
2017-12-05T06:44:13.874Z,21.90
2017-12-05T06:45:13.859Z,14.80
2017-12-05T06:46:13.834Z,18.20
2017-12-05T06:47:13.806Z,12.80
2017-12-05T06:48:13.771Z,14.60
2017-12-05T06:49:13.741Z,15.70
2017-12-05T06:50:13.705Z,17.20
2017-12-05T06:51:13.686Z,16.90
2017-12-05T06:52:13.651Z,16.60
2017-12-05T06:53:13.917Z,18.30
2017-12-05T06:54:13.594Z,13.10
2017-12-05T06:55:13.572Z,14.00
2017-12-05T06:56:13.536Z,19.20
2017-12-05T06:57:13.543Z,13.80
2017-12-05T06:58:13.483Z,11.50
2017-12-05T06:59:13.705Z,11.30
2017-12-05T07:00:13.430Z,13.20
2017-12-05T07:01:13.404Z,13.50
2017-12-05T07:02:13.369Z,12.00
2017-12-05T07:03:13.341Z,14.30
2017-12-05T07:04:13.318Z,11.70
2017-12-05T07:05:13.537Z,14.90
2017-12-05T07:06:13.261Z,8.60
2017-12-05T07:07:13.233Z,10.10
2017-12-05T07:08:13.198Z,8.60
2017-12-05T07:09:13.174Z,13.50
2017-12-05T07:10:13.136Z,19.60
2017-12-05T07:11:13.126Z,13.20
2017-12-05T07:12:13.083Z,15.00
2017-12-05T07:13:13.051Z,25.30
2017-12-05T07:14:13.035Z,21.30
2017-12-05T07:15:13.003Z,11.90
2017-12-05T07:16:12.970Z,12.90
2017-12-05T07:17:12.945Z,11.50
2017-12-05T07:18:12.920Z,11.60
2017-12-05T07:19:12.886Z,13.00
2017-12-05T07:20:12.854Z,12.30
2017-12-05T07:21:12.836Z,13.60
2017-12-05T07:22:12.802Z,14.80
2017-12-05T07:23:12.783Z,15.10
2017-12-05T07:24:12.751Z,13.30
2017-12-05T07:25:12.721Z,13.90
2017-12-05T07:26:12.698Z,13.20
2017-12-05T07:27:12.666Z,16.10
2017-12-05T07:28:12.636Z,16.60
2017-12-05T07:29:12.601Z,18.50
2017-12-05T07:30:12.578Z,19.20
2017-12-05T07:31:12.545Z,24.00
2017-12-05T07:32:12.525Z,20.50
2017-12-05T07:33:12.503Z,14.50
2017-12-05T07:34:12.468Z,16.60
2017-12-05T07:35:12.434Z,17.30
2017-12-05T07:36:12.410Z,15.30
2017-12-05T07:37:12.385Z,21.80
2017-12-05T07:38:12.351Z,21.50
2017-12-05T07:39:12.329Z,22.50
2017-12-05T07:40:12.294Z,18.70
2017-12-05T07:41:12.264Z,24.40
2017-12-05T07:42:12.233Z,19.40
2017-12-05T07:43:12.213Z,18.60
2017-12-05T07:44:12.190Z,23.20
2017-12-05T07:45:12.147Z,26.40
2017-12-05T07:46:12.120Z,22.70
2017-12-05T07:47:12.094Z,22.60
2017-12-05T07:48:12.061Z,25.40
2017-12-05T07:49:12.047Z,23.90
2017-12-05T07:50:12.015Z,24.60
2017-12-05T07:51:11.978Z,25.90
2017-12-05T07:52:11.945Z,23.40
2017-12-05T07:53:11.936Z,21.00
2017-12-05T07:54:11.904Z,27.20
2017-12-05T07:55:11.870Z,26.60
2017-12-05T07:56:11.838Z,22.60
2017-12-05T07:57:11.806Z,31.20
2017-12-05T07:58:11.781Z,26.40
2017-12-05T07:59:11.757Z,32.00
2017-12-05T08:00:11.724Z,28.20
2017-12-05T08:01:11.699Z,28.70
2017-12-05T08:02:11.672Z,42.80
2017-12-05T08:03:11.638Z,31.10
2017-12-05T08:04:11.605Z,32.00
2017-12-05T08:05:11.580Z,27.90
2017-12-05T08:06:11.563Z,28.40
2017-12-05T08:07:11.518Z,31.70
2017-12-05T08:08:11.494Z,29.40
2017-12-05T08:09:11.468Z,36.30
2017-12-05T08:10:11.435Z,36.40
2017-12-05T08:11:11.413Z,28.10
2017-12-05T08:12:11.384Z,36.20
2017-12-05T08:13:11.353Z,29.70
2017-12-05T08:14:11.325Z,37.10
2017-12-05T08:15:11.303Z,40.10
2017-12-05T08:16:11.271Z,34.70
2017-12-05T08:17:11.235Z,29.30
2017-12-05T08:18:11.211Z,40.00
2017-12-05T08:19:11.178Z,37.70
2017-12-05T08:20:11.158Z,34.40
2017-12-05T08:21:11.144Z,34.40
2017-12-05T08:22:11.101Z,34.20
2017-12-05T08:23:11.067Z,28.90
2017-12-05T08:24:11.034Z,28.10
2017-12-05T08:25:11.023Z,36.50
2017-12-05T08:26:10.987Z,32.80
2017-12-05T08:27:10.951Z,35.70
2017-12-05T08:28:10.927Z,34.50
2017-12-05T08:29:10.900Z,32.80
2017-12-05T08:30:10.866Z,29.20
2017-12-05T08:31:10.841Z,32.60
2017-12-05T08:32:10.819Z,30.80
2017-12-05T08:33:10.777Z,31.30
2017-12-05T08:34:10.754Z,34.60
2017-12-05T08:35:10.726Z,29.70
2017-12-05T08:36:10.698Z,27.50
2017-12-05T08:37:10.667Z,27.30
2017-12-05T08:38:10.647Z,33.50
2017-12-05T08:39:10.618Z,35.80
2017-12-05T08:40:10.581Z,35.40
2017-12-05T08:41:10.569Z,30.20
2017-12-05T08:42:10.529Z,33.40
2017-12-05T08:43:10.497Z,27.40
2017-12-05T08:44:10.470Z,24.40
2017-12-05T08:45:10.441Z,33.70
2017-12-05T08:46:10.408Z,31.30
2017-12-05T08:47:10.384Z,28.90
2017-12-05T08:48:10.365Z,29.50
2017-12-05T08:49:10.327Z,33.40
2017-12-05T08:50:10.295Z,35.60
2017-12-05T08:51:10.270Z,32.90
2017-12-05T08:52:10.249Z,33.00
2017-12-05T08:53:10.216Z,35.60
2017-12-05T08:54:10.199Z,33.20
2017-12-05T08:55:10.153Z,26.20
2017-12-05T08:56:10.126Z,30.70
2017-12-05T08:57:10.105Z,34.70
2017-12-05T08:58:10.079Z,35.00
2017-12-05T08:59:10.058Z,31.80
2017-12-05T09:00:10.023Z,22.50
2017-12-05T09:01:09.989Z,25.00
2017-12-05T09:02:09.968Z,26.50
2017-12-05T09:03:09.938Z,26.80
2017-12-05T09:04:09.902Z,25.70
2017-12-05T09:05:09.876Z,28.00
2017-12-05T09:06:09.850Z,26.90
2017-12-05T09:07:09.815Z,22.60
2017-12-05T09:08:09.786Z,22.90
2017-12-05T09:09:09.761Z,26.50
2017-12-05T09:10:09.744Z,33.50
2017-12-05T09:11:09.705Z,30.00
2017-12-05T09:12:09.679Z,35.70
2017-12-05T09:13:09.651Z,30.90
2017-12-05T09:14:09.626Z,31.70
2017-12-05T09:15:09.604Z,37.50
2017-12-05T09:16:09.565Z,36.50
2017-12-05T09:17:09.538Z,33.30
2017-12-05T09:18:09.505Z,27.90
2017-12-05T09:19:09.486Z,30.30
2017-12-05T09:20:09.458Z,30.50
2017-12-05T09:21:09.418Z,25.90
2017-12-05T09:22:09.393Z,26.80
2017-12-05T09:23:09.370Z,21.70
2017-12-05T09:24:09.343Z,26.50
2017-12-05T09:25:09.316Z,25.00
2017-12-05T09:26:09.280Z,24.10
2017-12-05T09:27:09.257Z,28.90
2017-12-05T09:28:09.225Z,28.30
2017-12-05T09:29:09.195Z,27.20
2017-12-05T09:30:09.176Z,26.20
2017-12-05T09:31:09.150Z,24.10
2017-12-05T09:32:09.126Z,23.00
2017-12-05T09:33:09.081Z,20.80
2017-12-05T09:34:09.058Z,24.20
2017-12-05T09:35:09.031Z,28.00
2017-12-05T09:36:09.001Z,40.50
2017-12-05T09:37:08.969Z,33.90
2017-12-05T09:38:08.942Z,33.30
2017-12-05T09:39:08.921Z,32.90
2017-12-05T09:40:08.891Z,31.20
2017-12-05T09:41:08.863Z,33.60
2017-12-05T09:42:08.833Z,31.90
2017-12-05T09:43:08.808Z,32.30
2017-12-05T09:44:08.784Z,27.00
2017-12-05T09:45:08.742Z,25.50
2017-12-05T09:46:08.717Z,30.80
2017-12-05T09:47:08.684Z,23.70
2017-12-05T09:48:08.669Z,27.30
2017-12-05T09:49:08.642Z,30.00
2017-12-05T09:50:08.611Z,23.30
2017-12-05T09:51:08.581Z,24.00
2017-12-05T09:52:08.568Z,24.10
2017-12-05T09:53:08.520Z,20.00
2017-12-05T09:54:08.496Z,17.70
2017-12-05T09:55:08.470Z,23.10
2017-12-05T09:56:08.445Z,21.00
2017-12-05T09:57:08.410Z,21.20
2017-12-05T09:58:08.383Z,23.60
2017-12-05T09:59:08.357Z,22.20
2017-12-05T10:00:08.326Z,21.20
2017-12-05T10:01:08.302Z,20.40
2017-12-05T10:02:08.273Z,22.40
2017-12-05T10:03:08.242Z,22.00
2017-12-05T10:04:08.211Z,25.00
2017-12-05T10:05:08.188Z,24.10
2017-12-05T10:06:08.159Z,25.50
2017-12-05T10:07:08.137Z,23.40
2017-12-05T10:08:08.099Z,24.50
2017-12-05T10:09:08.074Z,16.30
2017-12-05T10:10:08.051Z,23.50
2017-12-05T10:11:08.018Z,19.00
2017-12-05T10:12:07.997Z,18.20
2017-12-05T10:13:07.957Z,25.20
2017-12-05T10:14:07.937Z,22.20
2017-12-05T10:15:07.914Z,21.10
2017-12-05T10:16:07.884Z,20.00
2017-12-05T10:17:07.854Z,22.60
2017-12-05T10:18:07.817Z,19.80
2017-12-05T10:19:07.797Z,14.30
2017-12-05T10:20:07.768Z,27.00
2017-12-05T10:21:07.756Z,24.50
2017-12-05T10:22:08.012Z,22.60
2017-12-05T10:23:07.684Z,21.90
2017-12-05T10:24:07.653Z,17.10
2017-12-05T10:25:07.634Z,20.80
2017-12-05T10:26:07.599Z,21.00
2017-12-05T10:27:07.576Z,24.30
2017-12-05T10:28:07.549Z,23.20
2017-12-05T10:29:07.522Z,20.70
2017-12-05T10:30:07.495Z,20.80
2017-12-05T10:31:07.467Z,24.30
2017-12-05T10:32:07.434Z,25.90
2017-12-05T10:33:07.400Z,19.50
2017-12-05T10:34:07.630Z,25.80
2017-12-05T10:35:07.353Z,27.30
2017-12-05T10:36:07.313Z,15.20
2017-12-05T10:37:07.298Z,20.20
2017-12-05T10:38:07.269Z,21.40
2017-12-05T10:39:07.232Z,26.50
2017-12-05T10:40:07.210Z,25.00
2017-12-05T10:41:07.187Z,24.10
2017-12-05T10:42:07.150Z,21.10
2017-12-05T10:43:07.123Z,18.70
2017-12-05T10:44:07.096Z,15.90
2017-12-05T10:45:07.064Z,18.80
2017-12-05T10:46:07.335Z,22.80
2017-12-05T10:47:07.019Z,21.50
2017-12-05T10:48:06.991Z,17.50
2017-12-05T10:49:06.956Z,19.10
2017-12-05T10:50:06.935Z,20.20
2017-12-05T10:51:06.900Z,13.40
2017-12-05T10:52:06.867Z,20.10
2017-12-05T10:53:06.855Z,17.20
2017-12-05T10:54:06.823Z,15.60
2017-12-05T10:55:06.796Z,14.00
2017-12-05T10:56:06.765Z,20.00
2017-12-05T10:57:06.750Z,20.90
2017-12-05T10:58:06.704Z,28.20
2017-12-05T10:59:06.686Z,21.90
2017-12-05T11:00:06.655Z,14.40
2017-12-05T11:01:06.629Z,18.00
2017-12-05T11:02:06.592Z,18.20
2017-12-05T11:03:06.577Z,17.20
2017-12-05T11:04:06.545Z,16.00
2017-12-05T11:05:06.515Z,21.10
2017-12-05T11:06:06.487Z,21.50
2017-12-05T11:07:06.459Z,20.10
2017-12-05T11:08:06.430Z,22.90
2017-12-05T11:09:06.402Z,25.80
2017-12-05T11:10:06.388Z,22.10
2017-12-05T11:11:06.345Z,26.10
2017-12-05T11:12:06.320Z,27.50
2017-12-05T11:13:06.300Z,28.30
2017-12-05T11:14:06.263Z,26.00
2017-12-05T11:15:06.242Z,31.20
2017-12-05T11:16:06.515Z,23.70
2017-12-05T11:17:06.178Z,22.80
2017-12-05T11:18:06.155Z,28.80
2017-12-05T11:19:06.128Z,20.80
2017-12-05T11:20:06.102Z,23.30
2017-12-05T11:21:06.072Z,23.60
2017-12-05T11:22:06.042Z,23.80
2017-12-05T11:23:06.012Z,25.00
2017-12-05T11:24:05.979Z,22.90
2017-12-05T11:25:05.964Z,24.20
2017-12-05T11:26:05.934Z,25.50
2017-12-05T11:27:05.902Z,22.20
2017-12-05T11:28:05.875Z,27.80
2017-12-05T11:29:05.853Z,27.40
2017-12-05T11:30:05.816Z,24.50
2017-12-05T11:31:05.792Z,22.70
2017-12-05T11:32:05.767Z,22.60
2017-12-05T11:33:05.982Z,26.60
2017-12-05T11:34:05.710Z,27.20
2017-12-05T11:35:05.685Z,22.80
2017-12-05T11:36:05.653Z,32.70
2017-12-05T11:37:05.616Z,23.70
2017-12-05T11:38:05.595Z,20.30
2017-12-05T11:39:05.572Z,26.00
2017-12-05T11:40:05.551Z,29.50
2017-12-05T11:41:05.520Z,25.40
2017-12-05T11:42:05.490Z,18.90
2017-12-05T11:43:05.463Z,27.60
2017-12-05T11:44:05.429Z,20.50
2017-12-05T11:45:05.401Z,25.20
2017-12-05T11:46:05.381Z,26.70
2017-12-05T11:47:05.341Z,22.90
2017-12-05T11:48:05.318Z,28.40
2017-12-05T11:49:05.298Z,24.70
2017-12-05T11:50:05.271Z,17.10
2017-12-05T11:51:05.239Z,24.50
2017-12-05T11:52:05.225Z,23.90
2017-12-05T11:53:05.183Z,28.40
2017-12-05T11:54:05.166Z,24.20
2017-12-05T11:55:05.137Z,31.90
2017-12-05T11:56:05.110Z,16.80
2017-12-05T11:57:05.080Z,17.60
2017-12-05T11:58:05.048Z,16.30
2017-12-05T11:59:05.032Z,17.90
2017-12-05T12:00:04.997Z,24.40
2017-12-05T12:01:04.971Z,15.60
2017-12-05T12:02:04.950Z,20.40
2017-12-05T12:03:04.906Z,17.30
2017-12-05T12:04:04.888Z,17.00
2017-12-05T12:05:04.864Z,19.40
2017-12-05T12:06:04.825Z,17.00
2017-12-05T12:07:04.800Z,25.20
2017-12-05T12:08:04.780Z,26.30
2017-12-05T12:09:04.759Z,18.40
2017-12-05T12:10:04.723Z,17.50
2017-12-05T12:11:04.696Z,19.40
2017-12-05T12:12:04.665Z,20.10
2017-12-05T12:13:04.636Z,18.00
2017-12-05T12:14:04.605Z,20.10
2017-12-05T12:15:04.581Z,16.10
2017-12-05T12:16:04.552Z,20.20
2017-12-05T12:17:04.534Z,18.80
2017-12-05T12:18:04.494Z,19.50
2017-12-05T12:19:04.471Z,19.80
2017-12-05T12:20:04.439Z,15.40
2017-12-05T12:21:04.426Z,15.80
2017-12-05T12:22:04.396Z,17.70
2017-12-05T12:23:04.364Z,24.20
2017-12-05T12:24:04.338Z,15.80
2017-12-05T12:25:04.308Z,15.60
2017-12-05T12:26:04.284Z,21.70
2017-12-05T12:27:04.260Z,23.90
2017-12-05T12:28:04.227Z,17.90
2017-12-05T12:29:04.193Z,15.90
2017-12-05T12:30:04.187Z,12.30
2017-12-05T12:31:04.154Z,23.60
2017-12-05T12:32:04.119Z,15.40
2017-12-05T12:33:04.089Z,19.80
2017-12-05T12:34:04.065Z,15.20
2017-12-05T12:35:04.030Z,12.70
2017-12-05T12:36:04.006Z,12.60
2017-12-05T12:37:03.977Z,10.70
2017-12-05T12:38:03.950Z,17.50
2017-12-05T12:39:04.278Z,14.30
2017-12-05T12:40:03.892Z,11.80
2017-12-05T12:41:03.868Z,12.20
2017-12-05T12:42:03.837Z,16.90
2017-12-05T12:43:03.820Z,14.80
2017-12-05T12:44:03.791Z,12.70
2017-12-05T12:45:03.763Z,15.60
2017-12-05T12:46:03.725Z,14.00
2017-12-05T12:47:03.708Z,14.20
2017-12-05T12:48:03.676Z,15.70
2017-12-05T12:49:03.654Z,15.40
2017-12-05T12:50:03.619Z,12.20
2017-12-05T12:51:03.593Z,19.40
2017-12-05T12:52:03.556Z,15.30
2017-12-05T12:53:03.549Z,13.70